Mayer, Minnesota
Current Conditions -  °F | °C
As of 10:54 PM on Sunday 21 Dec 2014 (Local Time) from KGYL Reporting Station
Haze Haze  
Wind Chill: 31°   Ceiling: 500
Heat Index: 38°   Visibility: 4mi
Dew Point: 38°   Wind: 10mph
Humidity: 99%   Direction: 150°SSE
Pressure: 29.67"   Gusts: NA
Location:  44.88°N, 93.89°W
Report Text: KGYL 220454Z AUTO 15009KT 4SM BR OVC005 03/03 A2967 RMK AO2 T00320031
Loading
Personal Weather Stations






























Interactive Weather Map New forecast layout! Learn more

10-Day Weather Forecast

Advertisements
Track Severe Weather on mobile